sensor_id;sensor_type;location;lat;lon;timestamp;temperature;humidity
33994;DHT22;20673;48.980;8.138;2023-04-24T00:00:08;10.90;99.90
33994;DHT22;20673;48.980;8.138;2023-04-24T00:02:38;10.90;99.90
33994;DHT22;20673;48.980;8.138;2023-04-24T00:05:04;11.00;99.90
33994;DHT22;20673;48.980;8.138;2023-04-24T00:07:30;11.10;99.90
33994;DHT22;20673;48.980;8.138;2023-04-24T00:09:56;11.10;99.90
33994;DHT22;20673;48.980;8.138;2023-04-24T00:12:22;11.20;99.90
33994;DHT22;20673;48.980;8.138;2023-04-24T00:14:48;11.20;99.90
33994;DHT22;20673;48.980;8.138;2023-04-24T00:17:13;11.30;99.90
33994;DHT22;20673;48.980;8.138;2023-04-24T00:19:39;11.30;99.90
33994;DHT22;20673;48.980;8.138;2023-04-24T00:22:05;11.30;99.90
33994;DHT22;20673;48.980;8.138;2023-04-24T00:24:31;11.30;99.90
33994;DHT22;20673;48.980;8.138;2023-04-24T00:26:56;11.30;99.90
33994;DHT22;20673;48.980;8.138;2023-04-24T00:29:22;11.40;99.90
33994;DHT22;20673;48.980;8.138;2023-04-24T00:31:48;11.40;99.90
33994;DHT22;20673;48.980;8.138;2023-04-24T00:34:14;11.40;99.90
33994;DHT22;20673;48.980;8.138;2023-04-24T00:36:40;11.30;99.90
33994;DHT22;20673;48.980;8.138;2023-04-24T00:39:05;11.30;99.90
33994;DHT22;20673;48.980;8.138;2023-04-24T00:41:33;11.40;99.90
33994;DHT22;20673;48.980;8.138;2023-04-24T00:43:59;11.40;99.90
33994;DHT22;20673;48.980;8.138;2023-04-24T00:46:25;11.40;99.90
33994;DHT22;20673;48.980;8.138;2023-04-24T00:48:50;11.40;99.90
33994;DHT22;20673;48.980;8.138;2023-04-24T00:51:16;11.30;99.90
33994;DHT22;20673;48.980;8.138;2023-04-24T00:53:42;11.30;99.90
33994;DHT22;20673;48.980;8.138;2023-04-24T00:56:07;11.20;99.90
33994;DHT22;20673;48.980;8.138;2023-04-24T00:58:33;11.20;99.90
33994;DHT22;20673;48.980;8.138;2023-04-24T01:00:59;11.20;99.90
33994;DHT22;20673;48.980;8.138;2023-04-24T01:03:26;11.20;99.90
33994;DHT22;20673;48.980;8.138;2023-04-24T01:05:54;11.20;99.90
33994;DHT22;20673;48.980;8.138;2023-04-24T01:08:20;11.10;99.90
33994;DHT22;20673;48.980;8.138;2023-04-24T01:10:46;11.20;99.90
33994;DHT22;20673;48.980;8.138;2023-04-24T01:13:13;11.20;99.90
33994;DHT22;20673;48.980;8.138;2023-04-24T01:15:39;11.20;99.90
33994;DHT22;20673;48.980;8.138;2023-04-24T01:18:05;11.20;99.90
33994;DHT22;20673;48.980;8.138;2023-04-24T01:20:30;11.20;99.90
33994;DHT22;20673;48.980;8.138;2023-04-24T01:22:57;11.30;99.90
33994;DHT22;20673;48.980;8.138;2023-04-24T01:25:23;11.40;99.90
33994;DHT22;20673;48.980;8.138;2023-04-24T01:27:50;11.30;99.90
33994;DHT22;20673;48.980;8.138;2023-04-24T01:30:16;11.40;99.90
33994;DHT22;20673;48.980;8.138;2023-04-24T01:32:42;11.40;99.90
33994;DHT22;20673;48.980;8.138;2023-04-24T01:35:09;11.40;99.90
33994;DHT22;20673;48.980;8.138;2023-04-24T01:37:35;11.40;99.90
33994;DHT22;20673;48.980;8.138;2023-04-24T01:40:03;11.40;99.90
33994;DHT22;20673;48.980;8.138;2023-04-24T01:42:29;11.40;99.90
33994;DHT22;20673;48.980;8.138;2023-04-24T01:44:55;11.30;99.90
33994;DHT22;20673;48.980;8.138;2023-04-24T01:47:21;11.40;99.90
33994;DHT22;20673;48.980;8.138;2023-04-24T01:49:47;11.30;99.90
33994;DHT22;20673;48.980;8.138;2023-04-24T01:52:13;11.30;99.90
33994;DHT22;20673;48.980;8.138;2023-04-24T01:54:39;11.30;99.90
33994;DHT22;20673;48.980;8.138;2023-04-24T01:57:05;11.30;99.90
33994;DHT22;20673;48.980;8.138;2023-04-24T01:59:31;11.20;99.90
33994;DHT22;20673;48.980;8.138;2023-04-24T02:01:58;11.20;99.90
33994;DHT22;20673;48.980;8.138;2023-04-24T02:04:24;11.20;99.90
33994;DHT22;20673;48.980;8.138;2023-04-24T02:06:49;11.20;99.90
33994;DHT22;20673;48.980;8.138;2023-04-24T02:09:15;11.20;99.90
33994;DHT22;20673;48.980;8.138;2023-04-24T02:11:41;11.30;99.90
33994;DHT22;20673;48.980;8.138;2023-04-24T02:14:07;11.30;99.90
33994;DHT22;20673;48.980;8.138;2023-04-24T02:16:32;11.20;99.90
33994;DHT22;20673;48.980;8.138;2023-04-24T02:18:59;11.20;99.90
33994;DHT22;20673;48.980;8.138;2023-04-24T02:21:25;11.30;99.90
33994;DHT22;20673;48.980;8.138;2023-04-24T02:23:51;11.30;99.90
33994;DHT22;20673;48.980;8.138;2023-04-24T02:26:16;11.30;99.90
33994;DHT22;20673;48.980;8.138;2023-04-24T02:28:42;11.30;99.90
33994;DHT22;20673;48.980;8.138;2023-04-24T02:31:08;11.30;99.90
33994;DHT22;20673;48.980;8.138;2023-04-24T02:33:34;11.30;99.90
33994;DHT22;20673;48.980;8.138;2023-04-24T02:36:01;11.30;99.90
33994;DHT22;20673;48.980;8.138;2023-04-24T02:38:27;11.40;99.90
33994;DHT22;20673;48.980;8.138;2023-04-24T02:40:52;11.40;99.90
33994;DHT22;20673;48.980;8.138;2023-04-24T02:43:18;11.30;99.90
33994;DHT22;20673;48.980;8.138;2023-04-24T02:45:44;11.30;99.90
33994;DHT22;20673;48.980;8.138;2023-04-24T02:48:10;11.30;99.90
33994;DHT22;20673;48.980;8.138;2023-04-24T02:50:35;11.30;99.90
33994;DHT22;20673;48.980;8.138;2023-04-24T02:53:01;11.30;99.90
33994;DHT22;20673;48.980;8.138;2023-04-24T02:55:27;11.20;99.90
33994;DHT22;20673;48.980;8.138;2023-04-24T02:57:52;11.20;99.90
33994;DHT22;20673;48.980;8.138;2023-04-24T03:00:18;11.20;99.90
33994;DHT22;20673;48.980;8.138;2023-04-24T03:02:44;11.10;99.90
33994;DHT22;20673;48.980;8.138;2023-04-24T03:05:09;11.10;99.90
33994;DHT22;20673;48.980;8.138;2023-04-24T03:07:37;11.00;99.90
33994;DHT22;20673;48.980;8.138;2023-04-24T03:10:03;11.00;99.90
33994;DHT22;20673;48.980;8.138;2023-04-24T03:12:30;10.90;99.90
33994;DHT22;20673;48.980;8.138;2023-04-24T03:14:55;10.90;99.90
33994;DHT22;20673;48.980;8.138;2023-04-24T03:17:21;10.90;99.90
33994;DHT22;20673;48.980;8.138;2023-04-24T03:19:47;10.80;99.90
33994;DHT22;20673;48.980;8.138;2023-04-24T03:22:12;10.80;99.90
33994;DHT22;20673;48.980;8.138;2023-04-24T03:24:38;10.80;99.90
33994;DHT22;20673;48.980;8.138;2023-04-24T03:27:04;10.70;99.90
33994;DHT22;20673;48.980;8.138;2023-04-24T03:29:30;10.70;99.90
33994;DHT22;20673;48.980;8.138;2023-04-24T03:31:55;10.60;99.90
33994;DHT22;20673;48.980;8.138;2023-04-24T03:34:21;10.60;99.90
33994;DHT22;20673;48.980;8.138;2023-04-24T03:36:47;10.50;99.90
33994;DHT22;20673;48.980;8.138;2023-04-24T03:39:13;10.50;99.90
33994;DHT22;20673;48.980;8.138;2023-04-24T03:41:38;10.40;99.90
33994;DHT22;20673;48.980;8.138;2023-04-24T03:44:04;10.30;99.90
33994;DHT22;20673;48.980;8.138;2023-04-24T03:46:30;10.30;99.90
33994;DHT22;20673;48.980;8.138;2023-04-24T03:48:55;10.20;99.90
33994;DHT22;20673;48.980;8.138;2023-04-24T03:51:21;10.20;99.90
33994;DHT22;20673;48.980;8.138;2023-04-24T03:53:48;10.10;99.90
33994;DHT22;20673;48.980;8.138;2023-04-24T03:56:14;10.10;99.90
33994;DHT22;20673;48.980;8.138;2023-04-24T03:58:40;10.00;99.90
33994;DHT22;20673;48.980;8.138;2023-04-24T04:01:05;9.90;99.90
33994;DHT22;20673;48.980;8.138;2023-04-24T04:03:31;9.80;99.90
33994;DHT22;20673;48.980;8.138;2023-04-24T04:05:57;9.80;99.90
33994;DHT22;20673;48.980;8.138;2023-04-24T04:08:23;9.80;99.90
33994;DHT22;20673;48.980;8.138;2023-04-24T04:10:49;9.70;99.90
33994;DHT22;20673;48.980;8.138;2023-04-24T04:13:14;9.70;99.90
33994;DHT22;20673;48.980;8.138;2023-04-24T04:15:40;9.60;99.90
33994;DHT22;20673;48.980;8.138;2023-04-24T04:18:06;9.60;99.90
33994;DHT22;20673;48.980;8.138;2023-04-24T04:20:31;9.50;99.90
33994;DHT22;20673;48.980;8.138;2023-04-24T04:22:57;9.50;99.90
33994;DHT22;20673;48.980;8.138;2023-04-24T04:25:23;9.40;99.90
33994;DHT22;20673;48.980;8.138;2023-04-24T04:27:48;9.40;99.90
33994;DHT22;20673;48.980;8.138;2023-04-24T04:30:14;9.40;99.90
33994;DHT22;20673;48.980;8.138;2023-04-24T04:32:40;9.30;99.90
33994;DHT22;20673;48.980;8.138;2023-04-24T04:35:06;9.30;99.90
33994;DHT22;20673;48.980;8.138;2023-04-24T04:37:32;9.20;99.90
33994;DHT22;20673;48.980;8.138;2023-04-24T04:40:02;9.10;99.90
33994;DHT22;20673;48.980;8.138;2023-04-24T04:42:29;9.00;99.90
33994;DHT22;20673;48.980;8.138;2023-04-24T04:44:55;9.00;99.90
33994;DHT22;20673;48.980;8.138;2023-04-24T04:47:22;9.00;99.90
33994;DHT22;20673;48.980;8.138;2023-04-24T04:49:48;9.00;99.90
33994;DHT22;20673;48.980;8.138;2023-04-24T04:52:14;9.10;99.90
33994;DHT22;20673;48.980;8.138;2023-04-24T04:54:42;9.30;99.90
33994;DHT22;20673;48.980;8.138;2023-04-24T04:57:07;9.40;99.90
33994;DHT22;20673;48.980;8.138;2023-04-24T04:59:33;9.40;99.90
33994;DHT22;20673;48.980;8.138;2023-04-24T05:01:59;9.60;99.90
33994;DHT22;20673;48.980;8.138;2023-04-24T05:04:25;9.70;99.90
33994;DHT22;20673;48.980;8.138;2023-04-24T05:06:50;9.80;99.90
33994;DHT22;20673;48.980;8.138;2023-04-24T05:09:16;9.90;99.90
33994;DHT22;20673;48.980;8.138;2023-04-24T05:11:42;10.00;99.90
33994;DHT22;20673;48.980;8.138;2023-04-24T05:14:07;10.00;99.90
33994;DHT22;20673;48.980;8.138;2023-04-24T05:16:33;10.00;99.90
33994;DHT22;20673;48.980;8.138;2023-04-24T05:18:59;10.00;99.90
33994;DHT22;20673;48.980;8.138;2023-04-24T05:21:24;10.10;99.90
33994;DHT22;20673;48.980;8.138;2023-04-24T05:23:50;10.10;99.90
33994;DHT22;20673;48.980;8.138;2023-04-24T05:26:16;10.10;99.90
33994;DHT22;20673;48.980;8.138;2023-04-24T05:28:43;10.10;99.90
33994;DHT22;20673;48.980;8.138;2023-04-24T05:31:08;10.20;99.90
33994;DHT22;20673;48.980;8.138;2023-04-24T05:33:34;10.10;99.90
33994;DHT22;20673;48.980;8.138;2023-04-24T05:36:00;10.20;99.90
33994;DHT22;20673;48.980;8.138;2023-04-24T05:38:25;10.10;99.90
33994;DHT22;20673;48.980;8.138;2023-04-24T05:40:51;10.10;99.90
33994;DHT22;20673;48.980;8.138;2023-04-24T05:43:17;10.10;99.90
33994;DHT22;20673;48.980;8.138;2023-04-24T05:45:43;10.10;99.90
33994;DHT22;20673;48.980;8.138;2023-04-24T05:48:08;10.30;99.90
33994;DHT22;20673;48.980;8.138;2023-04-24T05:50:34;10.30;99.90
33994;DHT22;20673;48.980;8.138;2023-04-24T05:52:59;10.30;99.90
33994;DHT22;20673;48.980;8.138;2023-04-24T05:55:27;10.30;99.90
33994;DHT22;20673;48.980;8.138;2023-04-24T05:57:53;10.30;99.90
33994;DHT22;20673;48.980;8.138;2023-04-24T06:00:19;10.30;99.90
33994;DHT22;20673;48.980;8.138;2023-04-24T06:02:46;10.30;99.90
33994;DHT22;20673;48.980;8.138;2023-04-24T06:05:12;10.30;99.90
33994;DHT22;20673;48.980;8.138;2023-04-24T06:07:38;10.20;99.90
33994;DHT22;20673;48.980;8.138;2023-04-24T06:10:04;10.20;99.90
33994;DHT22;20673;48.980;8.138;2023-04-24T06:12:30;10.30;99.90
33994;DHT22;20673;48.980;8.138;2023-04-24T06:14:56;10.30;99.90
33994;DHT22;20673;48.980;8.138;2023-04-24T06:17:22;10.30;99.90
33994;DHT22;20673;48.980;8.138;2023-04-24T06:19:47;10.30;99.90
33994;DHT22;20673;48.980;8.138;2023-04-24T06:22:13;10.40;99.90
33994;DHT22;20673;48.980;8.138;2023-04-24T06:24:42;10.40;99.90
33994;DHT22;20673;48.980;8.138;2023-04-24T06:27:07;10.40;99.90
33994;DHT22;20673;48.980;8.138;2023-04-24T06:29:33;10.50;99.90
33994;DHT22;20673;48.980;8.138;2023-04-24T06:31:59;10.50;99.90
33994;DHT22;20673;48.980;8.138;2023-04-24T06:34:25;10.50;99.90
33994;DHT22;20673;48.980;8.138;2023-04-24T06:36:50;10.50;99.90
33994;DHT22;20673;48.980;8.138;2023-04-24T06:39:16;10.60;99.90
33994;DHT22;20673;48.980;8.138;2023-04-24T06:41:42;10.70;99.90
33994;DHT22;20673;48.980;8.138;2023-04-24T06:44:08;10.70;99.90
33994;DHT22;20673;48.980;8.138;2023-04-24T06:46:33;10.70;99.90
33994;DHT22;20673;48.980;8.138;2023-04-24T06:49:00;10.60;99.90
33994;DHT22;20673;48.980;8.138;2023-04-24T06:51:26;10.60;99.90
33994;DHT22;20673;48.980;8.138;2023-04-24T06:53:52;10.70;99.90
33994;DHT22;20673;48.980;8.138;2023-04-24T06:56:18;10.70;99.90
33994;DHT22;20673;48.980;8.138;2023-04-24T06:58:44;10.90;99.90
33994;DHT22;20673;48.980;8.138;2023-04-24T07:01:10;11.00;99.90
33994;DHT22;20673;48.980;8.138;2023-04-24T07:03:36;11.10;99.90
33994;DHT22;20673;48.980;8.138;2023-04-24T07:06:02;11.30;99.90
33994;DHT22;20673;48.980;8.138;2023-04-24T07:08:28;11.50;99.90
33994;DHT22;20673;48.980;8.138;2023-04-24T07:10:55;11.70;99.90
33994;DHT22;20673;48.980;8.138;2023-04-24T07:13:22;11.90;99.90
33994;DHT22;20673;48.980;8.138;2023-04-24T07:15:48;12.20;99.90
33994;DHT22;20673;48.980;8.138;2023-04-24T07:18:15;12.40;99.90
33994;DHT22;20673;48.980;8.138;2023-04-24T07:20:41;12.50;99.90
33994;DHT22;20673;48.980;8.138;2023-04-24T07:23:07;12.20;99.90
33994;DHT22;20673;48.980;8.138;2023-04-24T07:25:32;12.00;99.90
33994;DHT22;20673;48.980;8.138;2023-04-24T07:27:58;11.90;99.90
33994;DHT22;20673;48.980;8.138;2023-04-24T07:30:24;11.80;99.90
33994;DHT22;20673;48.980;8.138;2023-04-24T07:32:50;11.70;99.90
33994;DHT22;20673;48.980;8.138;2023-04-24T07:35:15;11.50;99.90
33994;DHT22;20673;48.980;8.138;2023-04-24T07:37:41;11.30;99.90
33994;DHT22;20673;48.980;8.138;2023-04-24T07:40:09;11.10;99.90
33994;DHT22;20673;48.980;8.138;2023-04-24T07:42:35;11.00;99.90
33994;DHT22;20673;48.980;8.138;2023-04-24T07:45:01;10.90;99.90
33994;DHT22;20673;48.980;8.138;2023-04-24T07:47:27;10.90;99.90
33994;DHT22;20673;48.980;8.138;2023-04-24T07:49:53;10.80;99.90
33994;DHT22;20673;48.980;8.138;2023-04-24T07:52:18;10.80;99.90
33994;DHT22;20673;48.980;8.138;2023-04-24T07:54:44;10.80;99.90
33994;DHT22;20673;48.980;8.138;2023-04-24T07:57:10;10.90;99.90
33994;DHT22;20673;48.980;8.138;2023-04-24T07:59:36;10.90;99.90
33994;DHT22;20673;48.980;8.138;2023-04-24T08:02:01;10.90;99.90
33994;DHT22;20673;48.980;8.138;2023-04-24T08:04:27;10.80;99.90
33994;DHT22;20673;48.980;8.138;2023-04-24T08:06:53;11.00;99.90
33994;DHT22;20673;48.980;8.138;2023-04-24T08:09:19;11.00;99.90
33994;DHT22;20673;48.980;8.138;2023-04-24T08:11:44;10.90;99.90
33994;DHT22;20673;48.980;8.138;2023-04-24T08:14:10;10.80;99.90
33994;DHT22;20673;48.980;8.138;2023-04-24T08:16:37;10.60;99.90
33994;DHT22;20673;48.980;8.138;2023-04-24T08:19:03;10.40;99.90
33994;DHT22;20673;48.980;8.138;2023-04-24T08:21:29;10.30;99.90
33994;DHT22;20673;48.980;8.138;2023-04-24T08:23:55;10.30;99.90
33994;DHT22;20673;48.980;8.138;2023-04-24T08:26:20;10.40;99.90
33994;DHT22;20673;48.980;8.138;2023-04-24T08:28:46;10.40;99.90
33994;DHT22;20673;48.980;8.138;2023-04-24T08:31:12;10.80;99.90
33994;DHT22;20673;48.980;8.138;2023-04-24T08:33:38;11.20;99.90
33994;DHT22;20673;48.980;8.138;2023-04-24T08:36:04;11.40;99.90
33994;DHT22;20673;48.980;8.138;2023-04-24T08:38:30;11.70;99.90
33994;DHT22;20673;48.980;8.138;2023-04-24T08:40:57;12.00;99.90
33994;DHT22;20673;48.980;8.138;2023-04-24T08:43:23;12.30;99.90
33994;DHT22;20673;48.980;8.138;2023-04-24T08:45:50;12.50;99.90
33994;DHT22;20673;48.980;8.138;2023-04-24T08:48:16;12.50;99.90
33994;DHT22;20673;48.980;8.138;2023-04-24T08:50:42;12.30;99.90
33994;DHT22;20673;48.980;8.138;2023-04-24T08:53:10;12.10;99.90
33994;DHT22;20673;48.980;8.138;2023-04-24T08:55:35;11.80;99.90
33994;DHT22;20673;48.980;8.138;2023-04-24T08:58:02;11.70;99.90
33994;DHT22;20673;48.980;8.138;2023-04-24T09:00:28;11.80;99.90
33994;DHT22;20673;48.980;8.138;2023-04-24T09:02:54;11.80;99.90
33994;DHT22;20673;48.980;8.138;2023-04-24T09:05:21;11.80;99.90
33994;DHT22;20673;48.980;8.138;2023-04-24T09:07:55;11.80;99.90
33994;DHT22;20673;48.980;8.138;2023-04-24T09:10:18;11.80;99.90
33994;DHT22;20673;48.980;8.138;2023-04-24T09:12:44;11.90;99.90
33994;DHT22;20673;48.980;8.138;2023-04-24T09:15:10;11.80;99.90
33994;DHT22;20673;48.980;8.138;2023-04-24T09:17:36;11.90;99.90
33994;DHT22;20673;48.980;8.138;2023-04-24T09:20:02;11.80;99.90
33994;DHT22;20673;48.980;8.138;2023-04-24T09:22:29;11.70;99.90
33994;DHT22;20673;48.980;8.138;2023-04-24T09:25:05;11.70;99.90
33994;DHT22;20673;48.980;8.138;2023-04-24T09:27:32;11.80;99.90
33994;DHT22;20673;48.980;8.138;2023-04-24T09:29:58;11.80;99.90
33994;DHT22;20673;48.980;8.138;2023-04-24T09:32:24;11.80;99.90
33994;DHT22;20673;48.980;8.138;2023-04-24T09:37:40;12.00;99.90
33994;DHT22;20673;48.980;8.138;2023-04-24T09:40:15;12.00;99.90
33994;DHT22;20673;48.980;8.138;2023-04-24T09:42:39;12.00;99.90
33994;DHT22;20673;48.980;8.138;2023-04-24T09:45:09;12.20;99.90
33994;DHT22;20673;48.980;8.138;2023-04-24T09:47:36;12.30;99.90
33994;DHT22;20673;48.980;8.138;2023-04-24T09:50:21;12.50;99.90
33994;DHT22;20673;48.980;8.138;2023-04-24T09:52:32;12.50;99.90
33994;DHT22;20673;48.980;8.138;2023-04-24T09:54:58;12.60;99.90
33994;DHT22;20673;48.980;8.138;2023-04-24T09:57:24;12.80;99.90
33994;DHT22;20673;48.980;8.138;2023-04-24T09:59:49;12.70;99.90
33994;DHT22;20673;48.980;8.138;2023-04-24T10:02:17;12.60;99.90
33994;DHT22;20673;48.980;8.138;2023-04-24T10:04:53;12.50;99.90
33994;DHT22;20673;48.980;8.138;2023-04-24T10:07:12;12.40;99.90
33994;DHT22;20673;48.980;8.138;2023-04-24T10:09:39;12.20;99.90
33994;DHT22;20673;48.980;8.138;2023-04-24T10:12:04;12.10;99.90
33994;DHT22;20673;48.980;8.138;2023-04-24T10:14:30;12.10;99.90
33994;DHT22;20673;48.980;8.138;2023-04-24T10:16:56;12.00;99.90
33994;DHT22;20673;48.980;8.138;2023-04-24T10:19:23;12.00;99.90
33994;DHT22;20673;48.980;8.138;2023-04-24T10:21:50;12.00;99.90
33994;DHT22;20673;48.980;8.138;2023-04-24T10:24:17;12.00;99.90
33994;DHT22;20673;48.980;8.138;2023-04-24T10:26:43;12.00;99.90
33994;DHT22;20673;48.980;8.138;2023-04-24T10:29:13;12.00;99.90
33994;DHT22;20673;48.980;8.138;2023-04-24T10:31:40;12.00;99.90
33994;DHT22;20673;48.980;8.138;2023-04-24T10:34:07;12.20;99.90
33994;DHT22;20673;48.980;8.138;2023-04-24T10:36:34;12.20;99.90
33994;DHT22;20673;48.980;8.138;2023-04-24T10:39:02;12.20;99.90
33994;DHT22;20673;48.980;8.138;2023-04-24T10:41:27;12.10;99.90
33994;DHT22;20673;48.980;8.138;2023-04-24T10:44:05;12.10;99.90
33994;DHT22;20673;48.980;8.138;2023-04-24T10:46:31;12.10;99.90
33994;DHT22;20673;48.980;8.138;2023-04-24T10:48:57;12.10;99.90
33994;DHT22;20673;48.980;8.138;2023-04-24T10:51:23;12.10;99.90
33994;DHT22;20673;48.980;8.138;2023-04-24T10:53:50;11.90;99.90
33994;DHT22;20673;48.980;8.138;2023-04-24T10:56:16;12.00;99.90
33994;DHT22;20673;48.980;8.138;2023-04-24T10:58:43;12.00;99.90
33994;DHT22;20673;48.980;8.138;2023-04-24T11:01:31;12.00;99.90
33994;DHT22;20673;48.980;8.138;2023-04-24T11:03:50;12.00;99.90
33994;DHT22;20673;48.980;8.138;2023-04-24T11:06:11;12.00;99.90
33994;DHT22;20673;48.980;8.138;2023-04-24T11:08:44;11.90;99.90
33994;DHT22;20673;48.980;8.138;2023-04-24T11:11:16;11.80;99.90
33994;DHT22;20673;48.980;8.138;2023-04-24T11:16:39;11.60;99.90
33994;DHT22;20673;48.980;8.138;2023-04-24T11:18:44;11.70;99.90
33994;DHT22;20673;48.980;8.138;2023-04-24T11:21:17;12.00;99.90
33994;DHT22;20673;48.980;8.138;2023-04-24T11:23:43;12.00;99.90
33994;DHT22;20673;48.980;8.138;2023-04-24T11:26:10;12.00;99.90
33994;DHT22;20673;48.980;8.138;2023-04-24T11:28:37;12.10;99.90
33994;DHT22;20673;48.980;8.138;2023-04-24T11:33:46;12.20;99.90
33994;DHT22;20673;48.980;8.138;2023-04-24T11:36:12;11.90;99.90
33994;DHT22;20673;48.980;8.138;2023-04-24T11:38:38;11.80;99.90
33994;DHT22;20673;48.980;8.138;2023-04-24T11:41:04;11.90;99.90
33994;DHT22;20673;48.980;8.138;2023-04-24T11:43:31;12.00;99.90
33994;DHT22;20673;48.980;8.138;2023-04-24T11:45:59;12.50;99.90
33994;DHT22;20673;48.980;8.138;2023-04-24T11:48:25;12.60;99.90
33994;DHT22;20673;48.980;8.138;2023-04-24T11:50:51;13.20;99.90
33994;DHT22;20673;48.980;8.138;2023-04-24T11:53:18;13.60;99.90
33994;DHT22;20673;48.980;8.138;2023-04-24T11:55:44;13.60;99.90
33994;DHT22;20673;48.980;8.138;2023-04-24T11:58:10;13.20;99.90
33994;DHT22;20673;48.980;8.138;2023-04-24T12:00:36;12.90;99.90
33994;DHT22;20673;48.980;8.138;2023-04-24T12:05:32;12.70;99.90
33994;DHT22;20673;48.980;8.138;2023-04-24T12:07:58;13.00;99.90
33994;DHT22;20673;48.980;8.138;2023-04-24T12:10:25;13.00;99.90
33994;DHT22;20673;48.980;8.138;2023-04-24T12:12:51;13.20;99.90
33994;DHT22;20673;48.980;8.138;2023-04-24T12:15:17;13.40;99.90
33994;DHT22;20673;48.980;8.138;2023-04-24T12:17:43;13.40;99.90
33994;DHT22;20673;48.980;8.138;2023-04-24T12:20:09;13.40;99.90
33994;DHT22;20673;48.980;8.138;2023-04-24T12:22:45;13.30;99.90
33994;DHT22;20673;48.980;8.138;2023-04-24T12:25:11;13.00;99.90
33994;DHT22;20673;48.980;8.138;2023-04-24T12:27:37;12.90;99.90
33994;DHT22;20673;48.980;8.138;2023-04-24T12:30:04;13.00;99.90
33994;DHT22;20673;48.980;8.138;2023-04-24T12:32:30;13.00;99.90
33994;DHT22;20673;48.980;8.138;2023-04-24T12:34:56;13.00;99.90
33994;DHT22;20673;48.980;8.138;2023-04-24T12:37:23;13.10;99.90
33994;DHT22;20673;48.980;8.138;2023-04-24T12:39:58;13.30;99.90
33994;DHT22;20673;48.980;8.138;2023-04-24T12:42:28;13.20;99.90
33994;DHT22;20673;48.980;8.138;2023-04-24T12:45:01;13.00;99.90
33994;DHT22;20673;48.980;8.138;2023-04-24T12:47:28;12.70;99.90
33994;DHT22;20673;48.980;8.138;2023-04-24T12:49:54;12.50;99.90
33994;DHT22;20673;48.980;8.138;2023-04-24T12:52:23;12.30;99.90
33994;DHT22;20673;48.980;8.138;2023-04-24T12:54:50;12.50;99.90
33994;DHT22;20673;48.980;8.138;2023-04-24T12:57:16;13.00;99.90
33994;DHT22;20673;48.980;8.138;2023-04-24T12:59:42;13.50;99.90
33994;DHT22;20673;48.980;8.138;2023-04-24T13:02:09;14.20;99.90
33994;DHT22;20673;48.980;8.138;2023-04-24T13:04:35;14.50;99.90
33994;DHT22;20673;48.980;8.138;2023-04-24T13:07:01;14.40;99.90
33994;DHT22;20673;48.980;8.138;2023-04-24T13:09:26;14.20;99.90
33994;DHT22;20673;48.980;8.138;2023-04-24T13:11:52;14.50;99.90
33994;DHT22;20673;48.980;8.138;2023-04-24T13:14:18;14.60;99.90
33994;DHT22;20673;48.980;8.138;2023-04-24T13:16:44;14.50;99.90
33994;DHT22;20673;48.980;8.138;2023-04-24T13:19:09;14.80;99.90
33994;DHT22;20673;48.980;8.138;2023-04-24T13:21:35;15.10;99.90
33994;DHT22;20673;48.980;8.138;2023-04-24T13:24:01;15.90;99.90
33994;DHT22;20673;48.980;8.138;2023-04-24T13:26:27;15.70;99.90
33994;DHT22;20673;48.980;8.138;2023-04-24T13:28:52;15.20;99.90
33994;DHT22;20673;48.980;8.138;2023-04-24T13:31:18;14.60;99.90
33994;DHT22;20673;48.980;8.138;2023-04-24T13:33:44;14.50;99.90
33994;DHT22;20673;48.980;8.138;2023-04-24T13:36:09;14.30;99.90
33994;DHT22;20673;48.980;8.138;2023-04-24T13:38:35;14.10;99.90
33994;DHT22;20673;48.980;8.138;2023-04-24T13:41:01;14.00;99.90
33994;DHT22;20673;48.980;8.138;2023-04-24T13:43:26;13.90;99.90
33994;DHT22;20673;48.980;8.138;2023-04-24T13:45:52;13.70;99.90
33994;DHT22;20673;48.980;8.138;2023-04-24T13:48:18;13.60;99.90
33994;DHT22;20673;48.980;8.138;2023-04-24T13:50:43;13.50;99.90
33994;DHT22;20673;48.980;8.138;2023-04-24T13:53:09;13.40;99.90
33994;DHT22;20673;48.980;8.138;2023-04-24T13:55:35;13.30;99.90
33994;DHT22;20673;48.980;8.138;2023-04-24T13:58:01;13.20;99.90
33994;DHT22;20673;48.980;8.138;2023-04-24T14:00:27;13.00;99.90
33994;DHT22;20673;48.980;8.138;2023-04-24T14:02:53;13.00;99.90
33994;DHT22;20673;48.980;8.138;2023-04-24T14:05:19;13.10;99.90
33994;DHT22;20673;48.980;8.138;2023-04-24T14:07:46;13.40;99.90
33994;DHT22;20673;48.980;8.138;2023-04-24T14:10:12;13.50;99.90
33994;DHT22;20673;48.980;8.138;2023-04-24T14:12:37;13.60;99.90
33994;DHT22;20673;48.980;8.138;2023-04-24T14:15:03;13.70;99.90
33994;DHT22;20673;48.980;8.138;2023-04-24T14:17:30;13.70;99.90
33994;DHT22;20673;48.980;8.138;2023-04-24T14:19:56;13.80;99.90
33994;DHT22;20673;48.980;8.138;2023-04-24T14:22:22;13.80;99.90
33994;DHT22;20673;48.980;8.138;2023-04-24T14:24:48;13.90;99.90
33994;DHT22;20673;48.980;8.138;2023-04-24T14:27:13;13.90;99.90
33994;DHT22;20673;48.980;8.138;2023-04-24T14:29:39;14.00;99.90
33994;DHT22;20673;48.980;8.138;2023-04-24T14:32:05;14.00;99.90
33994;DHT22;20673;48.980;8.138;2023-04-24T14:34:30;14.00;99.90
33994;DHT22;20673;48.980;8.138;2023-04-24T14:36:56;14.00;99.90
33994;DHT22;20673;48.980;8.138;2023-04-24T14:39:22;13.90;99.90
33994;DHT22;20673;48.980;8.138;2023-04-24T14:41:48;13.80;99.90
33994;DHT22;20673;48.980;8.138;2023-04-24T14:44:13;13.80;99.90
33994;DHT22;20673;48.980;8.138;2023-04-24T14:46:39;13.80;99.90
33994;DHT22;20673;48.980;8.138;2023-04-24T14:49:05;13.80;99.90
33994;DHT22;20673;48.980;8.138;2023-04-24T14:51:30;13.70;99.90
33994;DHT22;20673;48.980;8.138;2023-04-24T14:53:56;13.70;99.90
33994;DHT22;20673;48.980;8.138;2023-04-24T14:56:22;13.80;99.90
33994;DHT22;20673;48.980;8.138;2023-04-24T14:58:48;13.90;99.90
33994;DHT22;20673;48.980;8.138;2023-04-24T15:01:14;14.00;99.90
33994;DHT22;20673;48.980;8.138;2023-04-24T15:03:39;14.00;99.90
33994;DHT22;20673;48.980;8.138;2023-04-24T15:06:05;13.90;99.90
33994;DHT22;20673;48.980;8.138;2023-04-24T15:08:31;13.70;99.90
33994;DHT22;20673;48.980;8.138;2023-04-24T15:10:57;13.70;99.90
33994;DHT22;20673;48.980;8.138;2023-04-24T15:13:23;13.90;99.90
33994;DHT22;20673;48.980;8.138;2023-04-24T15:15:49;14.10;99.90
33994;DHT22;20673;48.980;8.138;2023-04-24T15:18:15;14.00;99.90
33994;DHT22;20673;48.980;8.138;2023-04-24T15:20:40;14.00;99.90
33994;DHT22;20673;48.980;8.138;2023-04-24T15:23:08;13.80;99.90
33994;DHT22;20673;48.980;8.138;2023-04-24T15:25:34;13.60;99.90
33994;DHT22;20673;48.980;8.138;2023-04-24T15:28:00;13.50;99.90
33994;DHT22;20673;48.980;8.138;2023-04-24T15:30:26;13.50;99.90
33994;DHT22;20673;48.980;8.138;2023-04-24T15:32:52;13.30;99.90
33994;DHT22;20673;48.980;8.138;2023-04-24T15:35:18;13.40;99.90